Terminal Aerodrome Forecast
Issued by NWS

Home | Current Version | Previous Version | Graphics & Text | Print | Product List | Glossary On
Versions: 1 2 3 4 5 6 7 8 9 10 11 12 13 14 15 16 17 18 19 20
000
FTUS43 KABR 022328
TAFATY
TAF
KATY 022328Z 0300/0324 33009KT P6SM -SN OVC022
      TEMPO 0300/0303 3SM -SN
     FM030900 22005KT P6SM BKN015
     FM031400 19007KT P6SM BKN015
     FM031800 18010KT P6SM BKN020=

USA.gov is the U.S. government's official web portal to all federal, state and local government web resources and services.